createdAt,value
2023-03-17T00:00:59.929Z,6.80
2023-03-17T00:04:02.856Z,4.47
2023-03-17T00:07:06.709Z,3.63
2023-03-17T00:10:15.638Z,5.83
2023-03-17T00:13:20.207Z,4.77
2023-03-17T00:16:27.005Z,5.23
2023-03-17T00:19:32.280Z,5.37
2023-03-17T00:22:35.052Z,3.37
2023-03-17T00:25:38.431Z,3.40
2023-03-17T00:28:43.293Z,3.47
2023-03-17T00:31:46.784Z,4.60
2023-03-17T00:34:49.570Z,3.73
2023-03-17T00:37:54.612Z,5.33
2023-03-17T00:40:57.465Z,3.43
2023-03-17T00:44:01.826Z,4.17
2023-03-17T00:47:04.993Z,4.93
2023-03-17T00:50:12.184Z,5.73
2023-03-17T00:53:17.759Z,3.97
2023-03-17T00:56:22.153Z,4.83
2023-03-17T00:59:30.764Z,5.10
2023-03-17T01:02:33.919Z,4.07
2023-03-17T01:05:36.968Z,5.07
2023-03-17T01:08:40.959Z,3.63
2023-03-17T01:11:44.247Z,3.83
2023-03-17T01:14:49.112Z,5.63
2023-03-17T01:17:52.828Z,3.60
2023-03-17T01:20:55.546Z,2.97
2023-03-17T01:23:58.258Z,2.87
2023-03-17T01:27:01.072Z,3.80
2023-03-17T01:30:05.869Z,3.40
2023-03-17T01:33:10.452Z,3.87
2023-03-17T01:36:13.422Z,5.03
2023-03-17T01:39:16.263Z,3.87
2023-03-17T01:42:18.904Z,5.00
2023-03-17T01:45:59.420Z,4.90
2023-03-17T01:49:09.759Z,5.27
2023-03-17T01:52:16.475Z,2.70
2023-03-17T01:55:20.649Z,4.63
2023-03-17T01:58:25.145Z,4.30
2023-03-17T02:01:34.035Z,3.90
2023-03-17T02:04:40.332Z,4.77
2023-03-17T02:07:43.088Z,4.00
2023-03-17T02:10:50.590Z,5.30
2023-03-17T02:13:53.970Z,5.20
2023-03-17T02:16:57.568Z,4.60
2023-03-17T02:20:15.703Z,3.90
2023-03-17T02:23:23.324Z,6.23
2023-03-17T02:26:28.171Z,4.83
2023-03-17T02:29:35.023Z,4.20
2023-03-17T02:32:38.699Z,2.93
2023-03-17T02:35:42.253Z,5.23
2023-03-17T02:38:46.453Z,4.47
2023-03-17T02:41:49.192Z,6.97
2023-03-17T02:44:51.956Z,4.20
2023-03-17T02:47:56.032Z,5.30
2023-03-17T02:50:58.747Z,3.83
2023-03-17T02:54:02.906Z,4.07
2023-03-17T02:57:07.557Z,3.90
2023-03-17T03:00:11.826Z,4.80
2023-03-17T03:03:14.583Z,5.17
2023-03-17T03:06:17.535Z,3.90
2023-03-17T03:09:22.468Z,4.33
2023-03-17T03:12:25.512Z,2.50
2023-03-17T03:15:28.499Z,4.57
2023-03-17T03:18:31.524Z,3.57
2023-03-17T03:21:34.769Z,5.80
2023-03-17T03:24:38.969Z,5.43
2023-03-17T03:27:41.674Z,3.63
2023-03-17T03:30:45.662Z,4.23
2023-03-17T03:33:48.442Z,5.53
2023-03-17T03:36:51.222Z,5.37
2023-03-17T03:39:55.294Z,4.70
2023-03-17T03:42:58.105Z,6.10
2023-03-17T03:46:00.872Z,4.87
2023-03-17T03:49:03.792Z,5.47
2023-03-17T03:52:07.165Z,4.13
2023-03-17T03:55:12.211Z,4.97
2023-03-17T03:58:14.984Z,4.83
2023-03-17T04:01:18.052Z,5.77
2023-03-17T04:04:21.598Z,4.27
2023-03-17T04:07:24.446Z,5.07
2023-03-17T04:10:28.992Z,4.07
2023-03-17T04:13:32.056Z,5.73
2023-03-17T04:16:34.777Z,4.47
2023-03-17T04:19:38.092Z,4.10
2023-03-17T04:22:40.952Z,5.37
2023-03-17T04:25:45.064Z,5.13
2023-03-17T04:28:47.835Z,7.07
2023-03-17T04:31:50.673Z,6.40
2023-03-17T04:34:53.529Z,7.00
2023-03-17T04:37:56.474Z,3.97
2023-03-17T04:41:00.905Z,6.37
2023-03-17T04:44:03.688Z,6.40
2023-03-17T04:47:07.701Z,4.97
2023-03-17T04:50:11.828Z,5.10
2023-03-17T04:53:14.570Z,5.10
2023-03-17T04:56:18.947Z,5.00
2023-03-17T04:59:21.916Z,5.13
2023-03-17T05:02:24.812Z,5.83
2023-03-17T05:05:27.556Z,4.50
2023-03-17T05:08:30.876Z,4.83
2023-03-17T05:11:35.102Z,4.77
2023-03-17T05:14:37.998Z,5.13
2023-03-17T05:17:40.925Z,5.70
2023-03-17T05:20:43.822Z,6.60
2023-03-17T05:23:46.529Z,3.23
2023-03-17T05:26:50.756Z,5.07
2023-03-17T05:29:53.530Z,3.43
2023-03-17T05:32:56.167Z,4.30
2023-03-17T05:35:58.900Z,4.70
2023-03-17T05:39:01.723Z,5.20
2023-03-17T05:42:06.203Z,4.33
2023-03-17T05:45:10.373Z,4.50
2023-03-17T05:48:13.310Z,6.83
2023-03-17T05:51:16.718Z,5.70
2023-03-17T05:54:19.504Z,6.50
2023-03-17T05:57:24.808Z,5.93
2023-03-17T06:00:29.338Z,5.60
2023-03-17T06:03:32.589Z,5.73
2023-03-17T06:06:35.351Z,5.73
2023-03-17T06:09:38.482Z,5.83
2023-03-17T06:12:42.991Z,5.80
2023-03-17T06:15:49.211Z,8.10
2023-03-17T06:18:52.105Z,5.27
2023-03-17T06:21:54.938Z,5.83
2023-03-17T06:24:57.588Z,4.40
2023-03-17T06:28:03.994Z,5.47
2023-03-17T06:31:08.773Z,4.93
2023-03-17T06:34:12.086Z,8.27
2023-03-17T06:37:15.499Z,5.50
2023-03-17T06:40:18.649Z,4.80
2023-03-17T06:43:25.014Z,5.30
2023-03-17T06:46:27.967Z,5.23
2023-03-17T06:49:30.755Z,6.67
2023-03-17T06:52:33.605Z,4.67
2023-03-17T06:55:36.549Z,6.00
2023-03-17T06:58:43.307Z,6.73
2023-03-17T07:01:46.477Z,6.10
2023-03-17T07:04:49.283Z,6.23
2023-03-17T07:07:52.303Z,6.47
2023-03-17T07:10:57.374Z,8.20
2023-03-17T07:14:01.507Z,5.32
2023-03-17T07:17:04.525Z,5.45
2023-03-17T07:20:07.993Z,4.32
2023-03-17T07:23:15.652Z,5.20
2023-03-17T07:26:18.446Z,5.57
2023-03-17T07:29:22.719Z,6.90
2023-03-17T07:32:25.599Z,5.75
2023-03-17T07:35:29.017Z,5.88
2023-03-17T07:38:32.009Z,6.45
2023-03-17T07:41:35.411Z,10.88
2023-03-17T07:44:41.441Z,5.18
2023-03-17T07:47:44.296Z,8.98
2023-03-17T07:50:47.368Z,5.30
2023-03-17T07:53:51.698Z,5.53
2023-03-17T07:56:54.622Z,5.93
2023-03-17T07:59:58.846Z,6.57
2023-03-17T08:03:09.973Z,5.30
2023-03-17T08:06:14.046Z,6.67
2023-03-17T08:09:17.190Z,4.60
2023-03-17T08:12:20.284Z,5.50
2023-03-17T08:15:24.456Z,6.50
2023-03-17T08:18:27.529Z,6.47
2023-03-17T08:21:30.913Z,6.18
2023-03-17T08:24:34.287Z,7.27
2023-03-17T08:27:37.093Z,5.20
2023-03-17T08:30:42.369Z,5.97
2023-03-17T08:33:48.479Z,7.37
2023-03-17T08:36:51.747Z,8.23
2023-03-17T08:39:54.475Z,7.20
2023-03-17T08:42:57.467Z,5.43
2023-03-17T08:46:04.286Z,6.70
2023-03-17T08:49:09.599Z,5.37
2023-03-17T08:52:12.426Z,4.23
2023-03-17T08:55:16.249Z,6.10
2023-03-17T08:58:20.164Z,4.70
2023-03-17T09:01:25.221Z,4.68
2023-03-17T09:04:28.796Z,7.63
2023-03-17T09:07:31.868Z,3.70
2023-03-17T09:10:34.740Z,4.57
2023-03-17T09:13:39.064Z,3.65
2023-03-17T09:16:43.236Z,4.85
2023-03-17T09:19:46.017Z,4.90
2023-03-17T09:22:49.158Z,5.63
2023-03-17T09:25:52.459Z,2.95
2023-03-17T09:28:55.302Z,3.55
2023-03-17T09:31:59.522Z,5.22
2023-03-17T09:35:02.664Z,4.03
2023-03-17T09:38:05.585Z,2.63
2023-03-17T09:41:28.395Z,4.70
2023-03-17T09:44:57.209Z,3.83
2023-03-17T09:48:23.723Z,6.25
2023-03-17T09:51:26.793Z,4.50
2023-03-17T09:54:34.708Z,3.10
2023-03-17T09:57:39.602Z,3.65
2023-03-17T10:00:42.590Z,2.40
2023-03-17T10:03:47.519Z,2.30
2023-03-17T10:06:52.106Z,4.88
2023-03-17T10:10:03.047Z,4.85
2023-03-17T10:13:15.061Z,3.65
2023-03-17T10:16:20.844Z,2.45
2023-03-17T10:19:30.444Z,3.63
2023-03-17T10:22:39.428Z,6.10
2023-03-17T10:25:42.803Z,4.93
2023-03-17T10:28:45.762Z,4.03
2023-03-17T10:31:48.965Z,3.15
2023-03-17T10:34:54.207Z,4.90
2023-03-17T10:38:13.519Z,5.65
2023-03-17T10:41:17.324Z,5.85
2023-03-17T10:44:27.657Z,3.13
2023-03-17T10:47:32.805Z,5.20
2023-03-17T10:50:39.958Z,3.42
2023-03-17T10:53:44.463Z,2.72
2023-03-17T10:56:50.296Z,2.92
2023-03-17T10:59:56.438Z,3.72
2023-03-17T11:03:00.812Z,2.67
2023-03-17T11:06:07.121Z,4.05
2023-03-17T11:09:16.821Z,4.28
2023-03-17T11:12:25.561Z,4.97
2023-03-17T11:15:34.242Z,2.78
2023-03-17T11:18:38.662Z,2.17
2023-03-17T11:21:50.426Z,2.45
2023-03-17T11:25:01.661Z,2.78
2023-03-17T11:28:17.843Z,2.20
2023-03-17T11:31:27.852Z,2.05
2023-03-17T11:34:52.633Z,2.15
2023-03-17T11:38:20.173Z,1.70
2023-03-17T11:41:45.032Z,2.30
2023-03-17T11:45:25.200Z,1.33
2023-03-17T11:48:38.617Z,1.92
2023-03-17T11:51:53.724Z,1.52
2023-03-17T11:55:09.137Z,3.08
2023-03-17T11:58:27.675Z,0.98
2023-03-17T12:01:39.921Z,1.58
2023-03-17T12:04:50.653Z,1.70
2023-03-17T12:07:57.077Z,2.13
2023-03-17T12:11:06.729Z,2.35
2023-03-17T12:14:21.076Z,2.22
2023-03-17T12:17:30.447Z,5.75
2023-03-17T12:20:43.698Z,4.53
2023-03-17T12:23:49.655Z,1.52
2023-03-17T12:27:00.322Z,3.47
2023-03-17T12:30:09.203Z,1.20
2023-03-17T12:33:20.664Z,1.88
2023-03-17T12:36:24.321Z,2.45
2023-03-17T12:39:33.279Z,1.13
2023-03-17T12:42:47.814Z,1.65
2023-03-17T12:46:17.578Z,1.75
2023-03-17T12:49:49.432Z,1.83
2023-03-17T12:53:15.458Z,1.30
2023-03-17T12:56:22.668Z,1.90
2023-03-17T12:59:27.170Z,1.45
2023-03-17T13:02:38.428Z,1.73
2023-03-17T13:05:47.070Z,1.70
2023-03-17T13:08:52.172Z,3.88
2023-03-17T13:11:55.770Z,0.90
2023-03-17T13:15:00.189Z,2.42
2023-03-17T13:18:31.293Z,1.25
2023-03-17T13:21:36.357Z,3.15
2023-03-17T13:24:48.579Z,0.93
2023-03-17T13:27:51.288Z,1.15
2023-03-17T13:31:11.366Z,1.63
2023-03-17T13:34:17.822Z,2.30
2023-03-17T13:37:27.918Z,1.98
2023-03-17T13:40:41.723Z,4.00
2023-03-17T13:44:01.674Z,1.73
2023-03-17T13:47:28.379Z,1.10
2023-03-17T13:50:33.664Z,2.90
2023-03-17T13:53:41.181Z,1.60
2023-03-17T13:56:53.816Z,1.40
2023-03-17T14:00:05.640Z,2.35
2023-03-17T14:03:14.552Z,0.93
2023-03-17T14:06:19.581Z,1.55
2023-03-17T14:09:33.930Z,1.60
2023-03-17T14:12:44.921Z,0.85
2023-03-17T14:15:52.169Z,0.85
2023-03-17T14:19:01.254Z,1.30
2023-03-17T14:22:06.085Z,1.25
2023-03-17T14:25:17.659Z,1.55
2023-03-17T14:28:28.472Z,1.35
2023-03-17T14:31:31.671Z,1.75
2023-03-17T14:34:43.038Z,1.48
2023-03-17T14:37:46.389Z,1.30
2023-03-17T14:40:50.443Z,1.77
2023-03-17T14:43:56.232Z,2.08
2023-03-17T14:47:04.013Z,2.08
2023-03-17T14:50:18.045Z,1.38
2023-03-17T14:53:22.428Z,1.65
2023-03-17T14:56:30.697Z,3.22
2023-03-17T14:59:36.508Z,1.15
2023-03-17T15:02:41.261Z,0.95
2023-03-17T15:05:46.668Z,1.40
2023-03-17T15:08:49.512Z,1.27
2023-03-17T15:11:55.225Z,0.85
2023-03-17T15:15:01.690Z,1.30
2023-03-17T15:18:08.253Z,1.30
2023-03-17T15:21:25.343Z,1.35
2023-03-17T15:24:35.132Z,0.90
2023-03-17T15:27:37.745Z,2.42
2023-03-17T15:30:47.449Z,1.73
2023-03-17T15:33:51.360Z,2.35
2023-03-17T15:36:56.078Z,1.60
2023-03-17T15:40:01.012Z,0.95
2023-03-17T15:43:03.767Z,2.20
2023-03-17T15:46:09.415Z,1.20
2023-03-17T15:49:13.268Z,1.13
2023-03-17T15:52:21.600Z,1.10
2023-03-17T15:55:26.002Z,2.05
2023-03-17T15:58:28.676Z,2.03
2023-03-17T16:01:31.364Z,2.28
2023-03-17T16:04:34.168Z,0.93
2023-03-17T16:07:38.389Z,2.47
2023-03-17T16:10:41.035Z,1.77
2023-03-17T16:13:43.621Z,1.65
2023-03-17T16:16:46.787Z,2.33
2023-03-17T16:19:49.528Z,2.22
2023-03-17T16:22:54.783Z,1.50
2023-03-17T16:26:11.695Z,2.80
2023-03-17T16:29:17.902Z,3.13
2023-03-17T16:32:20.671Z,1.55
2023-03-17T16:35:25.522Z,1.17
2023-03-17T16:38:31.512Z,3.85
2023-03-17T16:41:36.116Z,1.73
2023-03-17T16:44:38.816Z,2.53
2023-03-17T16:47:41.503Z,2.00
2023-03-17T16:50:44.852Z,4.07
2023-03-17T16:53:48.839Z,3.72
2023-03-17T16:56:51.813Z,3.90
2023-03-17T16:59:54.548Z,1.35
2023-03-17T17:02:57.376Z,1.73
2023-03-17T17:06:00.321Z,3.00
2023-03-17T17:09:04.664Z,2.00
2023-03-17T17:12:07.525Z,3.78
2023-03-17T17:15:12.756Z,1.95
2023-03-17T17:18:17.643Z,2.72
2023-03-17T17:21:20.472Z,2.22
2023-03-17T17:24:24.445Z,2.70
2023-03-17T17:27:27.122Z,2.75
2023-03-17T17:30:31.478Z,2.88
2023-03-17T17:33:35.214Z,2.72
2023-03-17T17:36:37.849Z,3.92
2023-03-17T17:39:41.806Z,5.35
2023-03-17T17:42:46.281Z,4.88
2023-03-17T17:45:49.916Z,2.72
2023-03-17T17:48:52.693Z,3.47
2023-03-17T17:51:55.315Z,1.75
2023-03-17T17:54:59.802Z,1.83
2023-03-17T17:58:02.529Z,5.10
2023-03-17T18:01:05.554Z,3.67
2023-03-17T18:04:09.485Z,5.55
2023-03-17T18:07:12.216Z,2.45
2023-03-17T18:10:19.260Z,2.83
2023-03-17T18:13:22.011Z,3.10
2023-03-17T18:16:25.715Z,2.72
2023-03-17T18:19:28.415Z,2.85
2023-03-17T18:22:31.063Z,2.60
2023-03-17T18:25:35.652Z,7.18
2023-03-17T18:28:38.378Z,2.90
2023-03-17T18:31:43.864Z,4.15
2023-03-17T18:34:48.959Z,3.58
2023-03-17T18:37:51.971Z,5.53
2023-03-17T18:40:55.980Z,3.30
2023-03-17T18:43:58.826Z,3.13
2023-03-17T18:47:02.257Z,3.90
2023-03-17T18:50:06.304Z,3.90
2023-03-17T18:53:08.909Z,3.67
2023-03-17T18:56:13.299Z,4.13
2023-03-17T18:59:16.460Z,3.20
2023-03-17T19:02:19.123Z,3.90
2023-03-17T19:05:21.840Z,3.03
2023-03-17T19:08:24.849Z,2.72
2023-03-17T19:11:29.748Z,4.07
2023-03-17T19:14:33.059Z,4.13
2023-03-17T19:17:35.697Z,3.40
2023-03-17T19:20:38.326Z,3.63
2023-03-17T19:23:41.575Z,2.88
2023-03-17T19:26:45.675Z,3.97
2023-03-17T19:29:48.315Z,4.70
2023-03-17T19:32:51.116Z,4.40
2023-03-17T19:35:56.132Z,2.20
2023-03-17T19:38:58.767Z,3.17
2023-03-17T19:42:03.198Z,3.85
2023-03-17T19:45:07.905Z,3.08
2023-03-17T19:48:10.603Z,3.05
2023-03-17T19:51:13.254Z,4.20
2023-03-17T19:54:16.591Z,2.28
2023-03-17T19:57:21.137Z,4.70
2023-03-17T20:00:24.665Z,3.80
2023-03-17T20:03:27.763Z,2.17
2023-03-17T20:06:31.906Z,2.97
2023-03-17T20:09:37.734Z,3.00
2023-03-17T20:12:43.293Z,3.00
2023-03-17T20:15:46.642Z,2.00
2023-03-17T20:18:49.504Z,2.95
2023-03-17T20:21:52.437Z,2.13
2023-03-17T20:24:55.052Z,4.00
2023-03-17T20:27:59.058Z,2.97
2023-03-17T20:31:02.893Z,3.92
2023-03-17T20:34:05.683Z,3.58
2023-03-17T20:37:08.572Z,3.75
2023-03-17T20:40:12.647Z,2.97
2023-03-17T20:43:17.018Z,3.28
2023-03-17T20:46:22.043Z,3.58
2023-03-17T20:49:24.687Z,4.68
2023-03-17T20:52:30.079Z,4.60
2023-03-17T20:55:32.790Z,2.60
2023-03-17T20:58:36.801Z,4.03
2023-03-17T21:01:40.233Z,2.53
2023-03-17T21:04:46.527Z,3.20
2023-03-17T21:07:49.493Z,3.10
2023-03-17T21:10:52.111Z,3.95
2023-03-17T21:13:56.111Z,3.45
2023-03-17T21:16:59.219Z,4.25
2023-03-17T21:20:01.998Z,3.80
2023-03-17T21:23:07.686Z,5.07
2023-03-17T21:26:10.988Z,3.35
2023-03-17T21:29:14.983Z,4.45
2023-03-17T21:32:17.619Z,3.88
2023-03-17T21:35:20.275Z,4.05
2023-03-17T21:38:22.988Z,4.10
2023-03-17T21:41:32.075Z,5.03
2023-03-17T21:44:36.073Z,3.22
2023-03-17T21:47:40.804Z,3.78
2023-03-17T21:50:43.980Z,5.18
2023-03-17T21:53:47.420Z,4.90
2023-03-17T21:56:50.486Z,4.77
2023-03-17T21:59:54.459Z,6.43
2023-03-17T22:02:59.189Z,6.13
2023-03-17T22:06:05.487Z,4.00
2023-03-17T22:09:08.644Z,5.63
2023-03-17T22:12:12.134Z,3.38
2023-03-17T22:15:16.236Z,4.82
2023-03-17T22:18:18.938Z,6.07
2023-03-17T22:21:23.473Z,5.63
2023-03-17T22:24:26.477Z,3.15
2023-03-17T22:27:29.200Z,3.45
2023-03-17T22:30:33.516Z,3.05
2023-03-17T22:33:36.433Z,2.95
2023-03-17T22:36:39.055Z,2.70
2023-03-17T22:39:41.678Z,2.88
2023-03-17T22:42:44.334Z,3.97
2023-03-17T22:45:48.568Z,3.10
2023-03-17T22:48:52.409Z,3.03
2023-03-17T22:51:55.069Z,3.90
2023-03-17T22:54:57.852Z,3.40
2023-03-17T22:58:00.485Z,4.23
2023-03-17T23:01:06.397Z,3.77
2023-03-17T23:04:09.141Z,4.87
2023-03-17T23:07:11.920Z,6.40
2023-03-17T23:10:17.435Z,4.22
2023-03-17T23:13:21.522Z,6.28
2023-03-17T23:16:25.505Z,5.00
2023-03-17T23:19:28.217Z,3.57
2023-03-17T23:22:30.847Z,3.37
2023-03-17T23:25:33.597Z,5.20
2023-03-17T23:28:36.714Z,4.20
2023-03-17T23:31:41.059Z,5.03
2023-03-17T23:34:43.711Z,4.63
2023-03-17T23:37:46.516Z,5.03
2023-03-17T23:40:50.129Z,7.87
2023-03-17T23:43:52.738Z,2.20
2023-03-17T23:46:57.056Z,4.63
2023-03-17T23:49:59.920Z,3.27
2023-03-17T23:53:02.832Z,2.93
2023-03-17T23:56:05.965Z,3.27
2023-03-17T23:59:10.749Z,3.13
